createdAt,value
2019-01-17T00:01:52.888Z,33.60
2019-01-17T00:04:22.855Z,29.27
2019-01-17T00:07:10.939Z,35.73
2019-01-17T00:09:51.393Z,38.80
2019-01-17T00:12:24.065Z,29.63
2019-01-17T00:15:00.261Z,40.80
2019-01-17T00:17:33.349Z,34.10
2019-01-17T00:20:03.304Z,33.53
2019-01-17T00:22:42.300Z,40.50
2019-01-17T00:25:30.625Z,30.43
2019-01-17T00:28:03.629Z,27.77
2019-01-17T00:30:36.227Z,31.80
2019-01-17T00:33:15.230Z,22.70
2019-01-17T00:35:51.624Z,34.70
2019-01-17T00:38:21.665Z,26.63
2019-01-17T00:40:51.697Z,34.57
2019-01-17T00:43:27.131Z,28.10
2019-01-17T00:46:02.948Z,29.23
2019-01-17T00:48:32.943Z,28.87
2019-01-17T00:51:18.976Z,27.53
2019-01-17T00:53:51.692Z,26.17
2019-01-17T00:56:36.587Z,28.73
2019-01-17T00:59:12.978Z,27.63
2019-01-17T01:01:48.818Z,25.63
2019-01-17T01:04:18.861Z,30.40
2019-01-17T01:07:05.115Z,35.17
2019-01-17T01:09:41.305Z,32.90
2019-01-17T01:12:11.328Z,29.23
2019-01-17T01:14:47.076Z,26.43
2019-01-17T01:17:20.314Z,28.20
2019-01-17T01:20:06.506Z,26.97
2019-01-17T01:22:39.582Z,35.47
2019-01-17T01:25:20.012Z,28.27
2019-01-17T01:27:59.330Z,36.73
2019-01-17T01:30:43.958Z,36.80
2019-01-17T01:33:31.907Z,31.83
2019-01-17T01:36:01.901Z,33.70
2019-01-17T01:38:40.734Z,30.40
2019-01-17T01:41:10.715Z,27.70
2019-01-17T01:43:40.673Z,37.60
2019-01-17T01:46:22.386Z,35.03
2019-01-17T01:48:52.403Z,22.83
2019-01-17T01:51:31.145Z,34.80
2019-01-17T01:53:59.469Z,29.10
2019-01-17T01:56:27.792Z,27.50
2019-01-17T01:58:56.132Z,33.67
2019-01-17T02:01:25.171Z,40.50
2019-01-17T02:03:53.570Z,34.53
2019-01-17T02:06:21.955Z,30.20
2019-01-17T02:08:50.537Z,28.20
2019-01-17T02:11:18.857Z,35.03
2019-01-17T02:13:47.793Z,41.63
2019-01-17T02:16:16.289Z,30.77
2019-01-17T02:18:44.641Z,32.47
2019-01-17T02:21:13.245Z,34.10
2019-01-17T02:23:41.937Z,35.60
2019-01-17T02:26:10.622Z,31.63
2019-01-17T02:28:39.009Z,26.63
2019-01-17T02:31:07.416Z,28.53
2019-01-17T02:33:35.732Z,30.90
2019-01-17T02:36:04.663Z,32.27
2019-01-17T02:38:32.978Z,31.40
2019-01-17T02:41:01.628Z,30.40
2019-01-17T02:43:29.968Z,28.67
2019-01-17T02:45:58.363Z,32.47
2019-01-17T02:48:26.701Z,26.87
2019-01-17T02:50:55.016Z,31.00
2019-01-17T02:53:23.489Z,29.63
2019-01-17T02:55:51.878Z,31.60
2019-01-17T02:58:20.491Z,22.53
2019-01-17T03:00:48.888Z,26.30
2019-01-17T03:03:17.196Z,28.07
2019-01-17T03:05:45.659Z,39.23
2019-01-17T03:08:13.984Z,28.63
2019-01-17T03:10:42.723Z,27.90
2019-01-17T03:13:11.105Z,29.73
2019-01-17T03:15:39.520Z,27.50
2019-01-17T03:18:07.876Z,26.03
2019-01-17T03:20:36.255Z,28.07
2019-01-17T03:23:04.867Z,23.43
2019-01-17T03:25:33.254Z,34.10
2019-01-17T03:28:01.653Z,29.63
2019-01-17T03:30:30.289Z,27.70
2019-01-17T03:32:58.631Z,27.17
2019-01-17T03:35:27.009Z,23.53
2019-01-17T03:37:55.414Z,22.27
2019-01-17T03:40:23.800Z,26.50
2019-01-17T03:42:52.207Z,20.00
2019-01-17T03:45:20.521Z,23.87
2019-01-17T03:47:48.841Z,25.63
2019-01-17T03:50:17.240Z,30.13
2019-01-17T03:52:45.624Z,30.07
2019-01-17T03:55:16.458Z,40.00
2019-01-17T03:57:44.858Z,23.33
2019-01-17T04:00:16.508Z,26.73
2019-01-17T04:02:44.901Z,22.43
2019-01-17T04:05:13.577Z,25.17
2019-01-17T04:07:42.060Z,27.00
2019-01-17T04:10:13.514Z,25.00
2019-01-17T04:12:41.853Z,30.53
2019-01-17T04:15:12.105Z,28.57
2019-01-17T04:17:40.518Z,28.73
2019-01-17T04:20:14.045Z,25.47
2019-01-17T04:22:42.788Z,27.23
2019-01-17T04:25:11.267Z,29.37
2019-01-17T04:27:39.651Z,27.30
2019-01-17T04:30:11.299Z,33.23
2019-01-17T04:32:40.005Z,26.60
2019-01-17T04:35:08.354Z,34.50
2019-01-17T04:37:36.957Z,37.00
2019-01-17T04:40:08.531Z,34.27
2019-01-17T04:42:36.845Z,33.27
2019-01-17T04:45:06.807Z,42.37
2019-01-17T04:47:35.210Z,42.30
2019-01-17T04:50:04.472Z,36.03
2019-01-17T04:52:32.955Z,36.43
2019-01-17T04:55:05.443Z,37.50
2019-01-17T04:57:31.700Z,31.73
2019-01-17T05:00:00.017Z,35.57
2019-01-17T05:02:28.430Z,42.37
2019-01-17T05:04:56.741Z,33.43
2019-01-17T05:07:25.064Z,35.60
2019-01-17T05:09:53.402Z,40.00
2019-01-17T05:12:21.713Z,38.83
2019-01-17T05:14:50.060Z,39.73
2019-01-17T05:17:18.759Z,36.27
2019-01-17T05:19:47.233Z,35.73
2019-01-17T05:22:15.639Z,34.87
2019-01-17T05:24:44.052Z,30.90
2019-01-17T05:27:12.378Z,44.50
2019-01-17T05:29:40.764Z,30.83
2019-01-17T05:32:09.238Z,43.83
2019-01-17T05:34:39.611Z,39.37
2019-01-17T05:37:08.373Z,35.97
2019-01-17T05:39:36.690Z,30.30
2019-01-17T05:42:05.446Z,36.00
2019-01-17T05:44:33.760Z,37.50
2019-01-17T05:47:02.166Z,34.73
2019-01-17T05:49:30.483Z,33.93
2019-01-17T05:51:58.871Z,51.87
2019-01-17T05:54:27.211Z,39.00
2019-01-17T05:56:55.596Z,41.70
2019-01-17T05:59:23.957Z,49.83
2019-01-17T06:01:52.274Z,41.00
2019-01-17T06:04:20.608Z,42.33
2019-01-17T06:06:48.926Z,40.67
2019-01-17T06:09:17.644Z,50.70
2019-01-17T06:11:45.969Z,38.30
2019-01-17T06:14:14.289Z,39.80
2019-01-17T06:16:42.627Z,38.00
2019-01-17T06:19:10.951Z,42.40
2019-01-17T06:21:39.358Z,35.70
2019-01-17T06:24:07.746Z,40.67
2019-01-17T06:26:36.142Z,49.40
2019-01-17T06:29:04.857Z,42.57
2019-01-17T06:31:33.581Z,35.60
2019-01-17T06:34:01.984Z,49.80
2019-01-17T06:36:30.309Z,36.40
2019-01-17T06:38:58.650Z,38.00
2019-01-17T06:41:26.975Z,54.70
2019-01-17T06:43:55.328Z,46.80
2019-01-17T06:46:23.644Z,52.63
2019-01-17T06:48:51.963Z,45.20
2019-01-17T06:51:20.336Z,40.63
2019-01-17T06:53:48.659Z,38.93
2019-01-17T06:56:17.133Z,32.97
2019-01-17T06:58:45.891Z,43.43
2019-01-17T07:01:14.220Z,40.67
2019-01-17T07:03:42.536Z,45.07
2019-01-17T07:06:10.893Z,45.33
2019-01-17T07:08:39.619Z,39.03
2019-01-17T07:11:07.936Z,47.23
2019-01-17T07:13:36.283Z,52.20
2019-01-17T07:16:05.063Z,46.83
2019-01-17T07:18:33.409Z,56.77
2019-01-17T07:21:01.717Z,49.80
2019-01-17T07:23:30.419Z,50.57
2019-01-17T07:25:58.812Z,51.10
2019-01-17T07:28:27.503Z,43.80
2019-01-17T07:30:55.813Z,45.70
2019-01-17T07:33:24.489Z,37.57
2019-01-17T07:35:52.807Z,42.53
2019-01-17T07:38:21.289Z,49.37
2019-01-17T07:40:49.607Z,41.73
2019-01-17T07:43:17.991Z,43.30
2019-01-17T07:45:46.377Z,39.20
2019-01-17T07:48:14.641Z,55.90
2019-01-17T07:50:42.987Z,50.60
2019-01-17T07:53:11.388Z,55.23
2019-01-17T07:55:39.717Z,44.80
2019-01-17T07:58:08.100Z,40.67
2019-01-17T08:00:36.448Z,51.70
2019-01-17T08:03:05.138Z,48.30
2019-01-17T08:05:33.617Z,47.20
2019-01-17T08:08:02.003Z,65.50
2019-01-17T08:10:30.505Z,56.17
2019-01-17T08:12:58.839Z,42.40
2019-01-17T08:15:27.239Z,57.80
2019-01-17T08:17:55.575Z,55.67
2019-01-17T08:20:24.522Z,47.27
2019-01-17T08:22:52.927Z,53.67
2019-01-17T08:25:21.584Z,50.13
2019-01-17T08:27:49.963Z,58.10
2019-01-17T08:30:24.009Z,62.93
2019-01-17T08:32:52.403Z,46.80
2019-01-17T08:35:21.166Z,70.67
2019-01-17T08:37:49.549Z,52.27
2019-01-17T08:40:29.913Z,60.80
2019-01-17T08:42:58.596Z,48.53
2019-01-17T08:45:26.990Z,56.27
2019-01-17T08:47:55.370Z,56.93
2019-01-17T08:50:24.154Z,72.57
2019-01-17T08:52:52.462Z,66.27
2019-01-17T08:55:21.170Z,61.97
2019-01-17T08:57:49.913Z,62.63
2019-01-17T09:00:23.960Z,63.63
2019-01-17T09:02:52.295Z,72.97
2019-01-17T09:05:20.680Z,58.27
2019-01-17T09:07:49.180Z,54.53
2019-01-17T09:10:20.233Z,60.00
2019-01-17T09:12:48.632Z,62.63
2019-01-17T09:15:22.927Z,62.90
2019-01-17T09:17:51.343Z,62.50
2019-01-17T09:20:19.990Z,55.70
2019-01-17T09:22:48.374Z,54.63
2019-01-17T09:25:18.031Z,62.07
2019-01-17T09:27:46.349Z,71.87
2019-01-17T09:30:17.124Z,56.70
2019-01-17T09:32:45.436Z,58.13
2019-01-17T09:35:15.411Z,50.03
2019-01-17T09:37:44.270Z,58.13
2019-01-17T09:40:15.227Z,46.83
2019-01-17T09:42:43.991Z,57.10
2019-01-17T09:45:12.940Z,41.80
2019-01-17T09:47:41.413Z,49.67
2019-01-17T09:50:12.900Z,64.17
2019-01-17T09:52:41.305Z,49.87
2019-01-17T09:55:10.342Z,49.67
2019-01-17T09:57:38.693Z,58.17
2019-01-17T10:00:21.608Z,46.87
2019-01-17T10:02:50.366Z,46.57
2019-01-17T10:05:18.743Z,49.00
2019-01-17T10:07:47.305Z,46.57
2019-01-17T10:10:17.984Z,51.33
2019-01-17T10:12:46.829Z,38.50
2019-01-17T10:15:21.150Z,38.40
2019-01-17T10:18:01.922Z,39.67
2019-01-17T10:21:05.264Z,59.13
2019-01-17T10:23:39.426Z,49.23
2019-01-17T10:26:10.938Z,44.83
2019-01-17T10:29:01.091Z,55.63
2019-01-17T10:31:38.007Z,31.37
2019-01-17T10:34:12.276Z,45.47
2019-01-17T10:36:49.594Z,54.03
2019-01-17T10:39:29.534Z,38.60
2019-01-17T10:42:03.967Z,41.73
2019-01-17T10:44:35.822Z,51.60
2019-01-17T10:47:19.322Z,47.97
2019-01-17T10:49:53.531Z,49.90
2019-01-17T10:52:59.960Z,55.03
2019-01-17T10:55:34.180Z,41.63
2019-01-17T10:58:14.944Z,55.60
2019-01-17T11:00:55.324Z,51.40
2019-01-17T11:03:35.422Z,31.10
2019-01-17T11:06:26.488Z,38.20
2019-01-17T11:09:17.798Z,34.70
2019-01-17T11:11:49.301Z,49.20
2019-01-17T11:14:21.115Z,34.90
2019-01-17T11:17:26.722Z,28.70
2019-01-17T11:20:00.872Z,38.40
2019-01-17T11:22:50.478Z,32.47
2019-01-17T11:25:53.548Z,32.37
2019-01-17T11:28:30.884Z,31.67
2019-01-17T11:31:11.005Z,37.53
2019-01-17T11:33:57.639Z,25.67
2019-01-17T11:36:44.189Z,29.30
2019-01-17T11:39:20.870Z,23.10
2019-01-17T11:41:55.120Z,20.70
2019-01-17T11:45:01.254Z,27.43
2019-01-17T11:47:59.901Z,21.93
2019-01-17T11:50:43.257Z,17.60
2019-01-17T11:53:14.734Z,26.77
2019-01-17T11:56:07.020Z,22.70
2019-01-17T11:59:13.178Z,12.23
2019-01-17T12:02:03.427Z,27.83
2019-01-17T12:04:31.182Z,16.77
2019-01-17T12:07:02.269Z,14.73
2019-01-17T12:09:30.580Z,18.37
2019-01-17T12:11:59.355Z,11.80
2019-01-17T12:14:27.739Z,29.33
2019-01-17T12:16:56.067Z,19.20
2019-01-17T12:19:24.488Z,14.33
2019-01-17T12:21:52.822Z,11.80
2019-01-17T12:24:21.130Z,11.00
2019-01-17T12:26:49.850Z,13.20
2019-01-17T12:29:18.228Z,18.40
2019-01-17T12:31:46.627Z,10.87
2019-01-17T12:34:15.207Z,27.73
2019-01-17T12:36:43.537Z,14.93
2019-01-17T12:39:13.989Z,17.17
2019-01-17T12:41:42.319Z,15.43
2019-01-17T12:44:10.634Z,15.63
2019-01-17T12:46:39.364Z,17.37
2019-01-17T12:49:08.052Z,20.53
2019-01-17T12:51:36.361Z,13.23
2019-01-17T12:54:05.133Z,17.17
2019-01-17T12:56:33.806Z,17.67
2019-01-17T12:59:02.208Z,11.43
2019-01-17T13:01:30.562Z,15.93
2019-01-17T13:03:59.041Z,19.10
2019-01-17T13:06:27.355Z,14.30
2019-01-17T13:08:55.700Z,18.67
2019-01-17T13:11:24.310Z,16.73
2019-01-17T13:13:52.639Z,16.80
2019-01-17T13:16:21.376Z,24.90
2019-01-17T13:18:49.987Z,22.93
2019-01-17T13:21:18.435Z,12.27
2019-01-17T13:23:47.353Z,15.83
2019-01-17T13:26:15.741Z,26.03
2019-01-17T13:28:44.308Z,24.60
2019-01-17T13:31:12.758Z,23.20
2019-01-17T13:33:41.093Z,25.00
2019-01-17T13:36:11.322Z,22.50
2019-01-17T13:38:39.662Z,20.67
2019-01-17T13:41:08.043Z,35.53
2019-01-17T13:43:36.410Z,29.83
2019-01-17T13:46:05.697Z,42.97
2019-01-17T13:48:34.296Z,34.10
2019-01-17T13:51:02.748Z,33.30
2019-01-17T13:53:31.159Z,24.30
2019-01-17T13:55:59.472Z,41.43
2019-01-17T13:58:27.816Z,21.80
2019-01-17T14:00:56.194Z,23.27
2019-01-17T14:03:24.516Z,22.47
2019-01-17T14:16:13.768Z,31.93
2019-01-17T14:18:42.111Z,27.60
2019-01-17T14:21:10.568Z,23.17
2019-01-17T14:23:38.900Z,16.10
2019-01-17T14:26:07.225Z,18.20
2019-01-17T14:28:35.983Z,24.63
2019-01-17T14:31:04.370Z,20.93
2019-01-17T14:33:33.077Z,21.87
2019-01-17T14:36:01.529Z,14.70
2019-01-17T14:38:29.864Z,24.37
2019-01-17T14:40:58.515Z,29.47
2019-01-17T14:43:26.985Z,20.87
2019-01-17T14:45:55.369Z,13.00
2019-01-17T14:48:23.851Z,18.33
2019-01-17T14:50:52.185Z,23.80
2019-01-17T14:53:20.507Z,20.33
2019-01-17T14:55:48.832Z,29.03
2019-01-17T14:58:17.147Z,34.93
2019-01-17T15:00:45.499Z,22.40
2019-01-17T15:03:13.788Z,14.60
2019-01-17T15:05:42.189Z,25.63
2019-01-17T15:08:10.508Z,17.80
2019-01-17T15:10:39.877Z,22.83
2019-01-17T15:13:08.800Z,16.70
2019-01-17T15:15:37.503Z,10.20
2019-01-17T15:18:06.589Z,14.07
2019-01-17T15:20:34.929Z,18.70
2019-01-17T15:23:03.412Z,21.00
2019-01-17T15:25:31.761Z,25.47
2019-01-17T15:28:00.138Z,20.10
2019-01-17T15:30:28.633Z,18.17
2019-01-17T15:32:57.017Z,16.07
2019-01-17T15:35:25.369Z,24.33
2019-01-17T15:37:53.784Z,20.23
2019-01-17T15:40:27.316Z,25.93
2019-01-17T15:42:56.056Z,23.67
2019-01-17T15:45:24.364Z,18.43
2019-01-17T15:47:52.694Z,19.37
2019-01-17T15:50:21.279Z,13.30
2019-01-17T15:52:50.073Z,10.57
2019-01-17T15:55:18.654Z,7.77
2019-01-17T15:57:47.654Z,13.77
2019-01-17T16:00:24.247Z,17.00
2019-01-17T16:02:52.708Z,11.40
2019-01-17T16:05:21.384Z,3.87
2019-01-17T16:07:49.701Z,3.53
2019-01-17T16:10:18.075Z,10.60
2019-01-17T16:12:46.409Z,4.97
2019-01-17T16:15:20.685Z,9.50
2019-01-17T16:17:49.084Z,4.83
2019-01-17T16:20:17.861Z,5.40
2019-01-17T16:22:46.646Z,7.83
2019-01-17T16:25:15.670Z,4.93
2019-01-17T16:27:44.404Z,5.47
2019-01-17T16:30:18.849Z,5.93
2019-01-17T16:32:47.233Z,3.10
2019-01-17T16:35:15.767Z,10.57
2019-01-17T16:37:44.904Z,32.60
2019-01-17T16:40:14.027Z,20.30
2019-01-17T16:42:42.711Z,4.30
2019-01-17T16:45:16.590Z,5.30
2019-01-17T16:47:45.496Z,7.67
2019-01-17T16:50:16.169Z,5.27
2019-01-17T16:52:44.697Z,11.77
2019-01-17T16:55:14.661Z,3.90
2019-01-17T16:57:48.797Z,4.93
2019-01-17T17:00:16.397Z,4.77
2019-01-17T17:02:44.708Z,5.37
2019-01-17T17:05:13.097Z,5.47
2019-01-17T17:07:41.461Z,7.43
2019-01-17T17:10:14.905Z,4.47
2019-01-17T17:12:43.272Z,5.17
2019-01-17T17:15:11.663Z,5.33
2019-01-17T17:17:40.103Z,6.70
2019-01-17T17:20:14.463Z,5.10
2019-01-17T17:22:42.837Z,4.53
2019-01-17T17:25:11.240Z,5.43
2019-01-17T17:27:39.559Z,5.83
2019-01-17T17:30:19.305Z,3.60
2019-01-17T17:32:47.613Z,7.13
2019-01-17T17:35:15.937Z,4.67
2019-01-17T17:37:44.412Z,5.40
2019-01-17T17:40:18.687Z,51.57
2019-01-17T17:42:47.464Z,3.70
2019-01-17T17:45:15.857Z,5.47
2019-01-17T17:47:44.229Z,6.53
2019-01-17T17:50:15.739Z,4.77
2019-01-17T17:52:44.052Z,6.07
2019-01-17T17:55:14.918Z,2.87
2019-01-17T17:57:43.361Z,3.30
2019-01-17T18:00:24.674Z,5.83
2019-01-17T18:02:53.647Z,4.30
2019-01-17T18:05:21.971Z,2.70
2019-01-17T18:07:50.283Z,3.93
2019-01-17T18:10:18.679Z,3.80
2019-01-17T18:12:46.992Z,6.60
2019-01-17T18:15:17.050Z,3.27
2019-01-17T18:17:45.917Z,4.83
2019-01-17T18:20:15.684Z,4.57
2019-01-17T18:22:44.071Z,6.37
2019-01-17T18:25:13.217Z,2.97
2019-01-17T18:27:41.600Z,5.10
2019-01-17T18:30:18.842Z,4.40
2019-01-17T18:32:47.474Z,4.47
2019-01-17T18:35:16.324Z,13.20
2019-01-17T18:37:44.723Z,5.37
2019-01-17T18:40:16.450Z,6.13
2019-01-17T18:42:45.093Z,5.13
2019-01-17T18:45:17.039Z,4.30
2019-01-17T18:47:45.534Z,5.17
2019-01-17T18:50:22.629Z,4.87
2019-01-17T18:52:50.928Z,7.27
2019-01-17T18:55:19.250Z,6.43
2019-01-17T18:57:47.663Z,12.87
2019-01-17T19:00:25.755Z,10.33
2019-01-17T19:02:54.083Z,4.67
2019-01-17T19:05:22.966Z,9.50
2019-01-17T19:07:51.946Z,12.87
2019-01-17T19:10:21.374Z,6.60
2019-01-17T19:12:50.144Z,8.37
2019-01-17T19:15:21.508Z,8.60
2019-01-17T19:17:49.846Z,15.67
2019-01-17T19:20:20.767Z,4.80
2019-01-17T19:22:49.334Z,8.00
2019-01-17T19:25:18.304Z,6.03
2019-01-17T19:27:46.690Z,6.90
2019-01-17T19:30:18.099Z,6.47
2019-01-17T19:32:46.792Z,9.07
2019-01-17T19:35:15.168Z,4.60
2019-01-17T19:37:44.207Z,5.73
2019-01-17T19:40:15.630Z,7.63
2019-01-17T19:42:43.921Z,3.70
2019-01-17T19:45:14.383Z,2.30
2019-01-17T19:47:42.855Z,1.57
2019-01-17T19:50:14.625Z,1.70
2019-01-17T19:52:43.018Z,2.30
2019-01-17T19:55:11.783Z,2.03
2019-01-17T19:57:40.105Z,3.00
2019-01-17T20:00:20.523Z,3.40
2019-01-17T20:02:49.001Z,1.47
2019-01-17T20:05:20.128Z,1.70
2019-01-17T20:07:48.528Z,1.73
2019-01-17T20:10:19.761Z,0.90
2019-01-17T20:12:48.168Z,2.10
2019-01-17T20:15:16.865Z,3.23
2019-01-17T20:17:45.263Z,2.23
2019-01-17T20:20:16.785Z,5.30
2019-01-17T20:22:45.504Z,1.63
2019-01-17T20:25:13.876Z,1.87
2019-01-17T20:27:42.200Z,3.83
2019-01-17T20:30:25.771Z,2.80
2019-01-17T20:32:55.164Z,3.40
2019-01-17T20:35:23.475Z,1.63
2019-01-17T20:37:51.800Z,10.43
2019-01-17T20:40:22.048Z,1.70
2019-01-17T20:42:50.442Z,2.60
2019-01-17T20:45:18.911Z,5.60
2019-01-17T20:47:47.417Z,1.00
2019-01-17T20:50:19.296Z,2.40
2019-01-17T20:52:47.634Z,1.60
2019-01-17T20:55:15.945Z,2.13
2019-01-17T20:57:45.405Z,1.40
2019-01-17T21:00:25.779Z,6.50
2019-01-17T21:02:54.108Z,6.33
2019-01-17T21:05:23.039Z,1.40
2019-01-17T21:07:51.515Z,1.10
2019-01-17T21:10:20.052Z,1.20
2019-01-17T21:12:48.757Z,1.23
2019-01-17T21:15:17.133Z,2.47
2019-01-17T21:17:45.436Z,2.60
2019-01-17T21:20:14.741Z,3.47
2019-01-17T21:22:43.411Z,1.70
2019-01-17T21:25:14.750Z,3.47
2019-01-17T21:27:43.130Z,9.93
2019-01-17T21:30:17.199Z,2.60
2019-01-17T21:32:45.511Z,2.63
2019-01-17T21:35:14.226Z,3.63
2019-01-17T21:37:42.531Z,1.53
2019-01-17T21:40:14.162Z,1.50
2019-01-17T21:42:42.658Z,2.50
2019-01-17T21:45:16.051Z,1.20
2019-01-17T21:47:44.437Z,2.80
2019-01-17T21:50:18.529Z,2.10
2019-01-17T21:52:46.910Z,1.83
2019-01-17T21:55:15.620Z,2.77
2019-01-17T21:57:44.011Z,4.97
2019-01-17T22:00:18.102Z,2.00
2019-01-17T22:02:46.406Z,1.87
2019-01-17T22:05:14.815Z,3.13
2019-01-17T22:07:43.262Z,4.50
2019-01-17T22:10:14.239Z,3.33
2019-01-17T22:12:42.610Z,2.17
2019-01-17T22:15:17.012Z,3.70
2019-01-17T22:17:45.322Z,2.40
2019-01-17T22:20:14.195Z,3.80
2019-01-17T22:22:42.492Z,3.33
2019-01-17T22:25:13.740Z,3.20
2019-01-17T22:27:42.403Z,3.93
2019-01-17T22:30:13.889Z,1.43
2019-01-17T22:32:42.214Z,2.70
2019-01-17T22:35:10.611Z,4.70
2019-01-17T22:37:38.905Z,1.40
2019-01-17T22:40:10.439Z,3.43
2019-01-17T22:42:38.837Z,3.43
2019-01-17T22:45:13.141Z,1.00
2019-01-17T22:47:43.234Z,1.20
2019-01-17T22:50:14.997Z,1.57
2019-01-17T22:52:43.309Z,4.13
2019-01-17T22:55:11.695Z,3.43
2019-01-17T22:57:40.004Z,3.47
2019-01-17T23:00:23.262Z,2.63
2019-01-17T23:02:51.573Z,1.80
2019-01-17T23:05:19.900Z,1.30
2019-01-17T23:07:48.562Z,1.53
2019-01-17T23:10:16.955Z,1.73
2019-01-17T23:12:45.261Z,4.40
2019-01-17T23:15:13.663Z,1.00
2019-01-17T23:17:42.034Z,1.00
2019-01-17T23:20:11.129Z,2.33
2019-01-17T23:22:39.442Z,1.00
2019-01-17T23:25:08.543Z,3.53
2019-01-17T23:27:36.849Z,1.57
2019-01-17T23:30:08.354Z,1.37
2019-01-17T23:32:36.661Z,1.30
2019-01-17T23:35:07.102Z,2.70
2019-01-17T23:37:35.513Z,4.23
2019-01-17T23:40:05.668Z,1.43
2019-01-17T23:42:33.988Z,1.50
2019-01-17T23:45:02.674Z,2.03
2019-01-17T23:47:31.367Z,2.07
2019-01-17T23:50:00.234Z,2.60
2019-01-17T23:52:28.660Z,4.40
2019-01-17T23:54:57.330Z,1.40
2019-01-17T23:57:25.666Z,1.87
2019-01-17T23:59:53.977Z,2.80
